Aérodrome :
LOGIN :

S'inscrire | Disclaimer

   EN    FR    IT 

 










Légende :    VFR   VFR Marginal   IFR   IFR Intensif   IFR Très Intensif
Visi : 
Plafond : 
>= 8 km
>= 3000ft
5 à 8 km
1000 à 3000 ft
1500m à 5 km
500 à 1000 ft
800 à 1500m
200 à 500 ft
< 800m
< 200 ft
Symboles :   Orages  Brouillard  Fortes neiges  Fortes précipitations  Vent > 20 kt
SIGMETs :   Divers  Orages  Givrage  Turbulence  Onde Orograph.  Cendres Volcan.






- Altitude de l'aérodrome : 3 ft
- Code IATA : LWR


EHLW - Leuuwarden Air Base

DERNIER METAR :
  • 040055Z AUTO 20006KT 9999 OVC072 05/03 Q1020 BLU

METARs EXPIRÉS :
  • 040025Z AUTO 20006KT 170V240 9999 SCT064 OVC069 05/02 Q1020 BLU
  • 032355Z AUTO 20006KT 9999 OVC069 04/02 Q1020 BLU
  • 032325Z AUTO 20005KT 9999 OVC071 03/01 Q1020 BLU
  • 032255Z AUTO 19005KT 9999 OVC073 02/M00 Q1020 BLU
  • 032225Z AUTO 19005KT 9999 BKN075 02/M00 Q1019 BLU

TAF TAF EHLW
Valide du 03 à 21h jusqu'au 04 à 09h UTC


032016Z 0321/0409 23004KT CAVOK



MET'MAP, la Météo Aéronautique d'un coup d'oeil ! - Copyright ORBIFLY Décembre 2007 - Disclaimer

ORBIFLY MET'MAP TEAM :

Programmation & Développement : Alexandra Zaïnal
Sur une idée originale de : Baudouin d'Aumeries
Assistance à la programmation : Marc-Olivier Méhu
Soutien technique & logistique : Manuel Goepfert

Contact : metmap@orbifly.com




SOURCES & CREDITS :

   NOAA